Gold Coast Airport Weather forecast (YBCG – OOL)

METAR

METAR YBCG 210800Z AUTO 17009KT 9999 // NCD 13/04 Q1019 RMK RF00.0/000.0

TAF

TAF YBCG 210437Z 2106/2206 18010KT CAVOK FM211200 21006KT CAVOK FM220200 17010KT 9999 FEW025 FM220400 12010KT 9999 FEW030 RMK T 17 13 11 11 Q 1018 1020 1021 1021

QNH (YBCG) Gold Coast

1019

Temperature & Dew Point

14° DP4